sensor_id;sensor_type;location;lat;lon;timestamp;pressure;altitude;pressure_sealevel;temperature;humidity
39275;BME280;24980;48.874;2.332;2023-12-28T00:01:17;101079.29;;;23.31;45.13
39275;BME280;24980;48.874;2.332;2023-12-28T00:03:47;101081.31;;;23.31;45.12
39275;BME280;24980;48.874;2.332;2023-12-28T00:06:18;101074.98;;;23.32;45.12
39275;BME280;24980;48.874;2.332;2023-12-28T00:08:48;101082.96;;;23.31;45.12
39275;BME280;24980;48.874;2.332;2023-12-28T00:11:18;101077.55;;;23.29;45.14
39275;BME280;24980;48.874;2.332;2023-12-28T00:13:48;101080.78;;;23.28;45.16
39275;BME280;24980;48.874;2.332;2023-12-28T00:16:18;101090.92;;;23.29;45.15
39275;BME280;24980;48.874;2.332;2023-12-28T00:18:49;101082.03;;;23.30;45.15
39275;BME280;24980;48.874;2.332;2023-12-28T00:21:19;101077.01;;;23.31;45.14
39275;BME280;24980;48.874;2.332;2023-12-28T00:23:49;101082.96;;;23.31;45.14
39275;BME280;24980;48.874;2.332;2023-12-28T00:26:19;101089.65;;;23.30;45.14
39275;BME280;24980;48.874;2.332;2023-12-28T00:28:49;101082.70;;;23.35;45.09
39275;BME280;24980;48.874;2.332;2023-12-28T00:31:19;101086.15;;;23.40;45.03
39275;BME280;24980;48.874;2.332;2023-12-28T00:33:49;101087.07;;;23.45;44.97
39275;BME280;24980;48.874;2.332;2023-12-28T00:36:19;101079.48;;;23.49;44.95
39275;BME280;24980;48.874;2.332;2023-12-28T00:38:49;101084.42;;;23.53;44.92
39275;BME280;24980;48.874;2.332;2023-12-28T00:41:20;101086.06;;;23.56;44.88
39275;BME280;24980;48.874;2.332;2023-12-28T00:43:50;101086.95;;;23.58;44.84
39275;BME280;24980;48.874;2.332;2023-12-28T00:46:20;101083.16;;;23.63;44.80
39275;BME280;24980;48.874;2.332;2023-12-28T00:48:50;101081.38;;;23.67;44.77
39275;BME280;24980;48.874;2.332;2023-12-28T00:51:23;101086.39;;;23.72;44.75
39275;BME280;24980;48.874;2.332;2023-12-28T00:53:54;101081.48;;;23.73;44.77
39275;BME280;24980;48.874;2.332;2023-12-28T00:56:21;101076.95;;;23.74;44.79
39275;BME280;24980;48.874;2.332;2023-12-28T00:58:51;101083.25;;;23.76;44.80
39275;BME280;24980;48.874;2.332;2023-12-28T01:01:21;101083.71;;;23.75;44.85
39275;BME280;24980;48.874;2.332;2023-12-28T01:03:52;101079.98;;;23.76;44.88
39275;BME280;24980;48.874;2.332;2023-12-28T01:06:24;101072.11;;;23.76;44.90
39275;BME280;24980;48.874;2.332;2023-12-28T01:08:55;101071.52;;;23.75;44.95
39275;BME280;24980;48.874;2.332;2023-12-28T01:11:23;101070.02;;;23.73;45.03
39275;BME280;24980;48.874;2.332;2023-12-28T01:13:53;101072.72;;;23.73;45.09
39275;BME280;24980;48.874;2.332;2023-12-28T01:16:23;101071.45;;;23.74;45.14
39275;BME280;24980;48.874;2.332;2023-12-28T01:18:53;101068.95;;;23.73;45.20
39275;BME280;24980;48.874;2.332;2023-12-28T01:21:23;101074.75;;;23.73;45.25
39275;BME280;24980;48.874;2.332;2023-12-28T01:23:53;101079.16;;;23.73;45.32
39275;BME280;24980;48.874;2.332;2023-12-28T01:26:23;101073.48;;;23.73;45.35
39275;BME280;24980;48.874;2.332;2023-12-28T01:28:53;101080.16;;;23.74;45.37
39275;BME280;24980;48.874;2.332;2023-12-28T01:31:24;101084.56;;;23.74;45.41
39275;BME280;24980;48.874;2.332;2023-12-28T01:33:53;101090.66;;;23.75;45.43
39275;BME280;24980;48.874;2.332;2023-12-28T01:36:23;101086.33;;;23.75;45.47
39275;BME280;24980;48.874;2.332;2023-12-28T01:38:54;101074.23;;;23.75;45.49
39275;BME280;24980;48.874;2.332;2023-12-28T01:41:25;101069.41;;;23.74;45.52
39275;BME280;24980;48.874;2.332;2023-12-28T01:44:00;101078.22;;;23.74;45.54
39275;BME280;24980;48.874;2.332;2023-12-28T01:46:24;101085.41;;;23.75;45.56
39275;BME280;24980;48.874;2.332;2023-12-28T01:48:55;101088.45;;;23.76;45.58
39275;BME280;24980;48.874;2.332;2023-12-28T01:51:28;101094.12;;;23.76;45.61
39275;BME280;24980;48.874;2.332;2023-12-28T01:53:55;101100.80;;;23.76;45.61
39275;BME280;24980;48.874;2.332;2023-12-28T01:56:26;101107.45;;;23.76;45.65
39275;BME280;24980;48.874;2.332;2023-12-28T01:58:56;101108.00;;;23.76;45.67
39275;BME280;24980;48.874;2.332;2023-12-28T02:01:27;101107.74;;;23.75;45.68
39275;BME280;24980;48.874;2.332;2023-12-28T02:04:00;101116.04;;;23.75;45.70
39275;BME280;24980;48.874;2.332;2023-12-28T02:06:30;101116.25;;;23.77;45.69
39275;BME280;24980;48.874;2.332;2023-12-28T02:08:58;101120.47;;;23.79;45.68
39275;BME280;24980;48.874;2.332;2023-12-28T02:11:28;101121.33;;;23.78;45.69
39275;BME280;24980;48.874;2.332;2023-12-28T02:13:58;101121.84;;;23.77;45.71
39275;BME280;24980;48.874;2.332;2023-12-28T02:16:32;101114.69;;;23.75;45.74
39275;BME280;24980;48.874;2.332;2023-12-28T02:19:06;101116.80;;;23.75;45.75
39275;BME280;24980;48.874;2.332;2023-12-28T02:21:31;101121.62;;;23.75;45.76
39275;BME280;24980;48.874;2.332;2023-12-28T02:24:00;101115.87;;;23.75;45.75
39275;BME280;24980;48.874;2.332;2023-12-28T02:26:30;101117.22;;;23.76;45.75
39275;BME280;24980;48.874;2.332;2023-12-28T02:29:01;101107.50;;;23.74;45.78
39275;BME280;24980;48.874;2.332;2023-12-28T02:31:39;101120.36;;;23.75;45.79
39275;BME280;24980;48.874;2.332;2023-12-28T02:34:08;101117.65;;;23.75;45.77
39275;BME280;24980;48.874;2.332;2023-12-28T02:36:34;101120.44;;;23.75;45.78
39275;BME280;24980;48.874;2.332;2023-12-28T02:39:03;101122.39;;;23.75;45.79
39275;BME280;24980;48.874;2.332;2023-12-28T02:41:34;101113.59;;;23.74;45.79
39275;BME280;24980;48.874;2.332;2023-12-28T02:44:04;101112.49;;;23.74;45.81
39275;BME280;24980;48.874;2.332;2023-12-28T02:46:34;101115.62;;;23.74;45.81
39275;BME280;24980;48.874;2.332;2023-12-28T02:49:04;101116.12;;;23.74;45.83
39275;BME280;24980;48.874;2.332;2023-12-28T02:51:34;101108.42;;;23.75;45.81
39275;BME280;24980;48.874;2.332;2023-12-28T02:54:04;101108.27;;;23.74;45.83
39275;BME280;24980;48.874;2.332;2023-12-28T02:56:34;101111.47;;;23.75;45.84
39275;BME280;24980;48.874;2.332;2023-12-28T02:59:04;101107.33;;;23.75;45.85
39275;BME280;24980;48.874;2.332;2023-12-28T03:01:34;101109.77;;;23.76;45.85
39275;BME280;24980;48.874;2.332;2023-12-28T03:04:04;101108.80;;;23.77;45.85
39275;BME280;24980;48.874;2.332;2023-12-28T03:06:37;101111.17;;;23.77;45.85
39275;BME280;24980;48.874;2.332;2023-12-28T03:09:05;101107.27;;;23.78;45.85
39275;BME280;24980;48.874;2.332;2023-12-28T03:11:38;101105.38;;;23.79;45.85
39275;BME280;24980;48.874;2.332;2023-12-28T03:14:06;101101.27;;;23.77;45.85
39275;BME280;24980;48.874;2.332;2023-12-28T03:16:36;101103.26;;;23.76;45.88
39275;BME280;24980;48.874;2.332;2023-12-28T03:19:06;101105.71;;;23.75;45.89
39275;BME280;24980;48.874;2.332;2023-12-28T03:21:42;101101.16;;;23.73;45.91
39275;BME280;24980;48.874;2.332;2023-12-28T03:24:07;101098.91;;;23.73;45.92
39275;BME280;24980;48.874;2.332;2023-12-28T03:26:39;101105.85;;;23.72;45.95
39275;BME280;24980;48.874;2.332;2023-12-28T03:29:08;101110.98;;;23.73;45.94
39275;BME280;24980;48.874;2.332;2023-12-28T03:31:40;101105.47;;;23.74;45.93
39275;BME280;24980;48.874;2.332;2023-12-28T03:34:11;101111.91;;;23.74;45.94
39275;BME280;24980;48.874;2.332;2023-12-28T03:36:39;101110.12;;;23.73;45.94
39275;BME280;24980;48.874;2.332;2023-12-28T03:39:09;101111.30;;;23.74;45.93
39275;BME280;24980;48.874;2.332;2023-12-28T03:44:10;101105.66;;;23.78;45.88
39275;BME280;24980;48.874;2.332;2023-12-28T03:46:40;101102.88;;;23.77;45.91
39275;BME280;24980;48.874;2.332;2023-12-28T03:49:21;101101.78;;;23.77;45.91
39275;BME280;24980;48.874;2.332;2023-12-28T03:51:40;101100.00;;;23.78;45.91
39275;BME280;24980;48.874;2.332;2023-12-28T03:54:10;101096.78;;;23.77;45.91
39275;BME280;24980;48.874;2.332;2023-12-28T03:56:40;101096.11;;;23.76;45.92
39275;BME280;24980;48.874;2.332;2023-12-28T03:59:10;101093.78;;;23.75;45.92
39275;BME280;24980;48.874;2.332;2023-12-28T04:01:40;101094.55;;;23.75;45.90
39275;BME280;24980;48.874;2.332;2023-12-28T04:04:10;101098.23;;;23.76;45.89
39275;BME280;24980;48.874;2.332;2023-12-28T04:06:40;101097.47;;;23.77;45.88
39275;BME280;24980;48.874;2.332;2023-12-28T04:09:13;101097.59;;;23.75;45.89
39275;BME280;24980;48.874;2.332;2023-12-28T04:11:41;101101.66;;;23.75;45.92
39275;BME280;24980;48.874;2.332;2023-12-28T04:14:11;101105.55;;;23.75;45.91
39275;BME280;24980;48.874;2.332;2023-12-28T04:16:41;101111.94;;;23.76;45.89
39275;BME280;24980;48.874;2.332;2023-12-28T04:19:11;101100.58;;;23.78;45.87
39275;BME280;24980;48.874;2.332;2023-12-28T04:24:12;101095.97;;;23.79;45.86
39275;BME280;24980;48.874;2.332;2023-12-28T04:26:42;101098.42;;;23.81;45.84
39275;BME280;24980;48.874;2.332;2023-12-28T04:29:12;101103.36;;;23.83;45.81
39275;BME280;24980;48.874;2.332;2023-12-28T04:31:42;101098.71;;;23.83;45.80
39275;BME280;24980;48.874;2.332;2023-12-28T04:34:12;101097.09;;;23.84;45.79
39275;BME280;24980;48.874;2.332;2023-12-28T04:36:43;101097.94;;;23.84;45.79
39275;BME280;24980;48.874;2.332;2023-12-28T04:39:13;101095.49;;;23.83;45.79
39275;BME280;24980;48.874;2.332;2023-12-28T04:41:43;101099.38;;;23.84;45.78
39275;BME280;24980;48.874;2.332;2023-12-28T04:44:13;101103.19;;;23.84;45.77
39275;BME280;24980;48.874;2.332;2023-12-28T04:46:43;101106.45;;;23.82;45.79
39275;BME280;24980;48.874;2.332;2023-12-28T04:49:13;101101.55;;;23.80;45.81
39275;BME280;24980;48.874;2.332;2023-12-28T04:51:43;101098.59;;;23.80;45.81
39275;BME280;24980;48.874;2.332;2023-12-28T04:54:14;101093.89;;;23.79;45.82
39275;BME280;24980;48.874;2.332;2023-12-28T04:56:44;101087.94;;;23.79;45.83
39275;BME280;24980;48.874;2.332;2023-12-28T04:59:14;101083.82;;;23.79;45.83
39275;BME280;24980;48.874;2.332;2023-12-28T05:01:44;101081.07;;;23.80;45.83
39275;BME280;24980;48.874;2.332;2023-12-28T05:04:14;101080.82;;;23.79;45.83
39275;BME280;24980;48.874;2.332;2023-12-28T05:06:44;101074.05;;;23.80;45.83
39275;BME280;24980;48.874;2.332;2023-12-28T05:09:14;101079.16;;;23.79;45.84
39275;BME280;24980;48.874;2.332;2023-12-28T05:11:44;101077.56;;;23.77;45.86
39275;BME280;24980;48.874;2.332;2023-12-28T05:14:14;101078.92;;;23.76;45.88
39275;BME280;24980;48.874;2.332;2023-12-28T05:16:44;101086.67;;;23.75;45.90
39275;BME280;24980;48.874;2.332;2023-12-28T05:19:14;101099.88;;;23.75;45.93
39275;BME280;24980;48.874;2.332;2023-12-28T05:21:44;101101.41;;;23.75;45.93
39275;BME280;24980;48.874;2.332;2023-12-28T05:24:14;101101.05;;;23.76;45.94
39275;BME280;24980;48.874;2.332;2023-12-28T05:26:45;101098.91;;;23.76;45.93
39275;BME280;24980;48.874;2.332;2023-12-28T05:29:15;101098.39;;;23.77;45.94
39275;BME280;24980;48.874;2.332;2023-12-28T05:31:45;101097.62;;;23.77;45.93
39275;BME280;24980;48.874;2.332;2023-12-28T05:34:15;101101.42;;;23.78;45.93
39275;BME280;24980;48.874;2.332;2023-12-28T05:36:45;101102.23;;;23.79;45.91
39275;BME280;24980;48.874;2.332;2023-12-28T05:39:15;101102.82;;;23.80;45.91
39275;BME280;24980;48.874;2.332;2023-12-28T05:41:45;101103.33;;;23.80;45.91
39275;BME280;24980;48.874;2.332;2023-12-28T05:44:15;101105.95;;;23.81;45.92
39275;BME280;24980;48.874;2.332;2023-12-28T05:46:45;101104.17;;;23.81;45.93
39275;BME280;24980;48.874;2.332;2023-12-28T05:49:15;101104.36;;;23.79;45.96
39275;BME280;24980;48.874;2.332;2023-12-28T05:51:45;101101.09;;;23.78;45.99
39275;BME280;24980;48.874;2.332;2023-12-28T05:54:15;101101.48;;;23.79;45.98
39275;BME280;24980;48.874;2.332;2023-12-28T05:56:45;101103.76;;;23.80;45.99
39275;BME280;24980;48.874;2.332;2023-12-28T05:59:15;101104.13;;;23.79;46.02
39275;BME280;24980;48.874;2.332;2023-12-28T06:01:49;101108.75;;;23.80;46.03
39275;BME280;24980;48.874;2.332;2023-12-28T06:04:21;101114.50;;;23.81;46.03
39275;BME280;24980;48.874;2.332;2023-12-28T06:06:46;101114.33;;;23.82;46.02
39275;BME280;24980;48.874;2.332;2023-12-28T06:09:21;101121.18;;;23.81;46.01
39275;BME280;24980;48.874;2.332;2023-12-28T06:11:51;101116.80;;;23.79;46.03
39275;BME280;24980;48.874;2.332;2023-12-28T06:14:17;101117.77;;;23.79;46.05
39275;BME280;24980;48.874;2.332;2023-12-28T06:16:48;101122.55;;;23.79;46.07
39275;BME280;24980;48.874;2.332;2023-12-28T06:19:19;101123.21;;;23.82;46.05
39275;BME280;24980;48.874;2.332;2023-12-28T06:21:49;101119.87;;;23.83;46.04
39275;BME280;24980;48.874;2.332;2023-12-28T06:24:19;101117.16;;;23.83;46.04
39275;BME280;24980;48.874;2.332;2023-12-28T06:29:23;101119.02;;;23.85;46.04
39275;BME280;24980;48.874;2.332;2023-12-28T06:31:50;101117.45;;;23.86;46.02
39275;BME280;24980;48.874;2.332;2023-12-28T06:34:20;101125.66;;;23.86;46.03
39275;BME280;24980;48.874;2.332;2023-12-28T06:36:50;101119.26;;;23.85;46.03
39275;BME280;24980;48.874;2.332;2023-12-28T06:39:20;101122.83;;;23.83;46.05
39275;BME280;24980;48.874;2.332;2023-12-28T06:41:50;101122.28;;;23.82;46.06
39275;BME280;24980;48.874;2.332;2023-12-28T06:44:20;101139.00;;;23.83;46.06
39275;BME280;24980;48.874;2.332;2023-12-28T06:46:51;101137.56;;;23.82;46.08
39275;BME280;24980;48.874;2.332;2023-12-28T06:49:21;101131.26;;;23.81;46.09
39275;BME280;24980;48.874;2.332;2023-12-28T06:51:51;101125.59;;;23.80;46.10
39275;BME280;24980;48.874;2.332;2023-12-28T06:54:21;101132.95;;;23.81;46.11
39275;BME280;24980;48.874;2.332;2023-12-28T06:56:51;101134.05;;;23.80;46.11
39275;BME280;24980;48.874;2.332;2023-12-28T06:59:21;101141.34;;;23.80;46.12
39275;BME280;24980;48.874;2.332;2023-12-28T07:01:51;101140.32;;;23.80;46.11
39275;BME280;24980;48.874;2.332;2023-12-28T07:04:22;101133.45;;;23.82;46.10
39275;BME280;24980;48.874;2.332;2023-12-28T07:06:52;101145.30;;;23.82;46.10
39275;BME280;24980;48.874;2.332;2023-12-28T07:09:22;101147.28;;;23.84;46.09
39275;BME280;24980;48.874;2.332;2023-12-28T07:11:52;101155.03;;;23.86;46.07
39275;BME280;24980;48.874;2.332;2023-12-28T07:14:22;101155.70;;;23.86;46.06
39275;BME280;24980;48.874;2.332;2023-12-28T07:16:52;101160.61;;;23.87;46.05
39275;BME280;24980;48.874;2.332;2023-12-28T07:19:22;101159.34;;;23.86;46.05
39275;BME280;24980;48.874;2.332;2023-12-28T07:21:52;101157.56;;;23.87;46.05
39275;BME280;24980;48.874;2.332;2023-12-28T07:24:24;101157.05;;;23.87;46.04
39275;BME280;24980;48.874;2.332;2023-12-28T07:26:52;101158.41;;;23.87;46.04
39275;BME280;24980;48.874;2.332;2023-12-28T07:29:22;101155.19;;;23.88;46.02
39275;BME280;24980;48.874;2.332;2023-12-28T07:31:53;101153.19;;;23.92;45.99
39275;BME280;24980;48.874;2.332;2023-12-28T07:34:22;101159.03;;;23.91;45.99
39275;BME280;24980;48.874;2.332;2023-12-28T07:36:52;101160.72;;;23.92;45.97
39275;BME280;24980;48.874;2.332;2023-12-28T07:39:25;101158.40;;;23.92;45.96
39275;BME280;24980;48.874;2.332;2023-12-28T07:41:52;101159.24;;;23.93;45.93
39275;BME280;24980;48.874;2.332;2023-12-28T07:44:23;101159.58;;;23.93;45.91
39275;BME280;24980;48.874;2.332;2023-12-28T07:46:53;101161.60;;;23.94;45.90
39275;BME280;24980;48.874;2.332;2023-12-28T07:49:23;101168.45;;;23.95;45.89
39275;BME280;24980;48.874;2.332;2023-12-28T07:51:53;101160.66;;;23.95;45.88
39275;BME280;24980;48.874;2.332;2023-12-28T07:54:23;101162.88;;;23.94;45.89
39275;BME280;24980;48.874;2.332;2023-12-28T07:56:53;101154.11;;;23.92;45.91
39275;BME280;24980;48.874;2.332;2023-12-28T07:59:23;101154.88;;;23.91;45.92
39275;BME280;24980;48.874;2.332;2023-12-28T08:01:54;101153.87;;;23.91;45.93
39275;BME280;24980;48.874;2.332;2023-12-28T08:04:24;101160.26;;;23.92;45.91
39275;BME280;24980;48.874;2.332;2023-12-28T08:06:54;101154.41;;;23.94;45.89
39275;BME280;24980;48.874;2.332;2023-12-28T08:09:24;101157.12;;;23.93;45.88
39275;BME280;24980;48.874;2.332;2023-12-28T08:11:54;101168.62;;;23.95;45.87
39275;BME280;24980;48.874;2.332;2023-12-28T08:14:30;101172.39;;;23.97;45.87
39275;BME280;24980;48.874;2.332;2023-12-28T08:16:55;101173.82;;;23.98;45.87
39275;BME280;24980;48.874;2.332;2023-12-28T08:19:25;101174.41;;;23.98;45.87
39275;BME280;24980;48.874;2.332;2023-12-28T08:21:55;101179.41;;;23.98;45.87
39275;BME280;24980;48.874;2.332;2023-12-28T08:24:25;101172.56;;;23.97;45.87
39275;BME280;24980;48.874;2.332;2023-12-28T08:26:55;101174.59;;;23.97;45.87
39275;BME280;24980;48.874;2.332;2023-12-28T08:29:26;101175.82;;;23.95;45.88
39275;BME280;24980;48.874;2.332;2023-12-28T08:31:56;101181.84;;;23.94;45.88
39275;BME280;24980;48.874;2.332;2023-12-28T08:34:26;101175.10;;;23.96;45.81
39275;BME280;24980;48.874;2.332;2023-12-28T08:36:56;101181.27;;;23.97;45.79
39275;BME280;24980;48.874;2.332;2023-12-28T08:39:27;101174.82;;;23.93;45.85
39275;BME280;24980;48.874;2.332;2023-12-28T08:41:57;101177.46;;;23.86;45.92
39275;BME280;24980;48.874;2.332;2023-12-28T08:44:28;101175.02;;;23.82;45.94
39275;BME280;24980;48.874;2.332;2023-12-28T08:46:57;101177.77;;;23.79;45.98
39275;BME280;24980;48.874;2.332;2023-12-28T08:49:27;101180.41;;;23.77;46.00
39275;BME280;24980;48.874;2.332;2023-12-28T08:51:57;101178.05;;;23.76;45.98
39275;BME280;24980;48.874;2.332;2023-12-28T08:54:31;101177.78;;;23.76;45.97
39275;BME280;24980;48.874;2.332;2023-12-28T08:56:58;101186.08;;;23.76;45.96
39275;BME280;24980;48.874;2.332;2023-12-28T08:59:28;101184.29;;;23.79;45.93
39275;BME280;24980;48.874;2.332;2023-12-28T09:01:58;101192.72;;;23.79;45.93
39275;BME280;24980;48.874;2.332;2023-12-28T09:04:30;101196.19;;;23.79;45.94
39275;BME280;24980;48.874;2.332;2023-12-28T09:06:58;101196.61;;;23.80;45.94
39275;BME280;24980;48.874;2.332;2023-12-28T09:09:28;101200.04;;;23.78;45.97
39275;BME280;24980;48.874;2.332;2023-12-28T09:11:58;101199.41;;;23.75;46.01
39275;BME280;24980;48.874;2.332;2023-12-28T09:14:28;101211.35;;;23.73;46.03
39275;BME280;24980;48.874;2.332;2023-12-28T09:16:59;101200.17;;;23.74;46.03
39275;BME280;24980;48.874;2.332;2023-12-28T09:19:29;101216.55;;;23.72;46.05
39275;BME280;24980;48.874;2.332;2023-12-28T09:22:01;101217.06;;;23.71;46.06
39275;BME280;24980;48.874;2.332;2023-12-28T09:24:29;101210.22;;;23.70;46.05
39275;BME280;24980;48.874;2.332;2023-12-28T09:27:05;101209.06;;;23.69;46.04
39275;BME280;24980;48.874;2.332;2023-12-28T09:29:30;101216.34;;;23.68;46.07
39275;BME280;24980;48.874;2.332;2023-12-28T09:32:00;101223.75;;;23.66;46.10
39275;BME280;24980;48.874;2.332;2023-12-28T09:34:30;101220.71;;;23.65;46.11
39275;BME280;24980;48.874;2.332;2023-12-28T09:37:00;101230.02;;;23.66;46.11
39275;BME280;24980;48.874;2.332;2023-12-28T09:39:30;101232.86;;;23.67;46.10
39275;BME280;24980;48.874;2.332;2023-12-28T09:42:04;101229.17;;;23.66;46.10
39275;BME280;24980;48.874;2.332;2023-12-28T09:44:31;101237.67;;;23.68;46.08
39275;BME280;24980;48.874;2.332;2023-12-28T09:47:02;101239.45;;;23.68;46.07
39275;BME280;24980;48.874;2.332;2023-12-28T09:49:31;101235.90;;;23.68;46.08
39275;BME280;24980;48.874;2.332;2023-12-28T09:52:01;101238.19;;;23.67;46.08
39275;BME280;24980;48.874;2.332;2023-12-28T09:54:31;101256.72;;;23.68;46.05
39275;BME280;24980;48.874;2.332;2023-12-28T09:57:06;101248.42;;;23.68;46.04
39275;BME280;24980;48.874;2.332;2023-12-28T09:59:32;101242.42;;;23.67;46.04
39275;BME280;24980;48.874;2.332;2023-12-28T10:02:02;101240.81;;;23.68;46.04
39275;BME280;24980;48.874;2.332;2023-12-28T10:04:32;101244.20;;;23.67;46.04
39275;BME280;24980;48.874;2.332;2023-12-28T10:07:02;101237.97;;;23.65;46.05
39275;BME280;24980;48.874;2.332;2023-12-28T10:09:35;101232.91;;;23.63;46.07
39275;BME280;24980;48.874;2.332;2023-12-28T10:12:03;101232.09;;;23.62;46.08
39275;BME280;24980;48.874;2.332;2023-12-28T10:14:33;101232.56;;;23.63;46.07
39275;BME280;24980;48.874;2.332;2023-12-28T10:17:03;101236.88;;;23.65;46.04
39275;BME280;24980;48.874;2.332;2023-12-28T10:19:33;101226.55;;;23.64;46.06
39275;BME280;24980;48.874;2.332;2023-12-28T10:22:04;101226.98;;;23.64;46.06
39275;BME280;24980;48.874;2.332;2023-12-28T10:24:33;101220.72;;;23.63;46.05
39275;BME280;24980;48.874;2.332;2023-12-28T10:27:04;101221.77;;;23.63;46.06
39275;BME280;24980;48.874;2.332;2023-12-28T10:29:34;101224.98;;;23.63;46.07
39275;BME280;24980;48.874;2.332;2023-12-28T10:32:04;101221.26;;;23.63;46.08
39275;BME280;24980;48.874;2.332;2023-12-28T10:34:34;101215.64;;;23.63;46.11
39275;BME280;24980;48.874;2.332;2023-12-28T10:37:05;101217.50;;;23.65;46.10
39275;BME280;24980;48.874;2.332;2023-12-28T10:39:36;101218.34;;;23.64;46.10
39275;BME280;24980;48.874;2.332;2023-12-28T10:42:09;101223.80;;;23.63;46.09
39275;BME280;24980;48.874;2.332;2023-12-28T10:44:41;101223.42;;;23.64;46.08
39275;BME280;24980;48.874;2.332;2023-12-28T10:47:15;101219.36;;;23.64;46.06
39275;BME280;24980;48.874;2.332;2023-12-28T10:49:40;101220.24;;;23.63;46.07
39275;BME280;24980;48.874;2.332;2023-12-28T10:52:10;101224.65;;;23.62;46.07
39275;BME280;24980;48.874;2.332;2023-12-28T10:55:00;101218.64;;;23.63;46.05
39275;BME280;24980;48.874;2.332;2023-12-28T10:57:22;101219.78;;;23.64;46.04
39275;BME280;24980;48.874;2.332;2023-12-28T10:59:58;101212.76;;;23.65;46.03
39275;BME280;24980;48.874;2.332;2023-12-28T11:02:11;101204.84;;;23.67;46.00
39275;BME280;24980;48.874;2.332;2023-12-28T11:04:47;101198.37;;;23.66;46.02
39275;BME280;24980;48.874;2.332;2023-12-28T11:07:14;101195.92;;;23.64;46.02
39275;BME280;24980;48.874;2.332;2023-12-28T11:09:42;101188.89;;;23.64;46.00
39275;BME280;24980;48.874;2.332;2023-12-28T11:12:13;101186.73;;;23.63;46.00
39275;BME280;24980;48.874;2.332;2023-12-28T11:14:43;101176.76;;;23.61;46.00
39275;BME280;24980;48.874;2.332;2023-12-28T11:17:16;101181.16;;;23.61;46.01
39275;BME280;24980;48.874;2.332;2023-12-28T11:19:44;101182.09;;;23.61;46.03
39275;BME280;24980;48.874;2.332;2023-12-28T11:22:15;101179.30;;;23.60;46.01
39275;BME280;24980;48.874;2.332;2023-12-28T11:24:45;101181.79;;;23.60;46.02
39275;BME280;24980;48.874;2.332;2023-12-28T11:27:16;101190.84;;;23.59;46.07
39275;BME280;24980;48.874;2.332;2023-12-28T11:29:49;101200.49;;;23.59;46.09
39275;BME280;24980;48.874;2.332;2023-12-28T11:32:19;101192.38;;;23.59;46.09
39275;BME280;24980;48.874;2.332;2023-12-28T11:34:57;101191.45;;;23.58;46.09
39275;BME280;24980;48.874;2.332;2023-12-28T11:37:17;101188.83;;;23.57;46.11
39275;BME280;24980;48.874;2.332;2023-12-28T11:39:48;101180.87;;;23.57;46.11
39275;BME280;24980;48.874;2.332;2023-12-28T11:42:20;101178.29;;;23.60;46.08
39275;BME280;24980;48.874;2.332;2023-12-28T11:44:54;101173.72;;;23.60;46.07
39275;BME280;24980;48.874;2.332;2023-12-28T11:47:24;101175.02;;;23.60;46.05
39275;BME280;24980;48.874;2.332;2023-12-28T11:49:52;101176.71;;;23.60;46.05
39275;BME280;24980;48.874;2.332;2023-12-28T11:52:28;101174.52;;;23.58;46.03
39275;BME280;24980;48.874;2.332;2023-12-28T11:54:49;101169.61;;;23.60;46.02
39275;BME280;24980;48.874;2.332;2023-12-28T11:57:20;101171.81;;;23.58;46.01
39275;BME280;24980;48.874;2.332;2023-12-28T11:59:55;101173.34;;;23.57;46.02
39275;BME280;24980;48.874;2.332;2023-12-28T12:02:20;101170.84;;;23.56;46.01
39275;BME280;24980;48.874;2.332;2023-12-28T12:04:51;101170.00;;;23.55;46.02
39275;BME280;24980;48.874;2.332;2023-12-28T12:07:21;101165.27;;;23.54;46.02
39275;BME280;24980;48.874;2.332;2023-12-28T12:10:02;101165.52;;;23.54;46.02
39275;BME280;24980;48.874;2.332;2023-12-28T12:12:22;101160.02;;;23.54;46.02
39275;BME280;24980;48.874;2.332;2023-12-28T12:14:53;101156.47;;;23.54;46.01
39275;BME280;24980;48.874;2.332;2023-12-28T12:17:26;101153.08;;;23.55;45.98
39275;BME280;24980;48.874;2.332;2023-12-28T12:19:55;101152.57;;;23.55;46.00
39275;BME280;24980;48.874;2.332;2023-12-28T12:22:29;101152.74;;;23.54;45.98
39275;BME280;24980;48.874;2.332;2023-12-28T12:24:56;101149.70;;;23.54;45.98
39275;BME280;24980;48.874;2.332;2023-12-28T12:27:26;101155.79;;;23.54;45.97
39275;BME280;24980;48.874;2.332;2023-12-28T12:29:59;101157.27;;;23.53;45.98
39275;BME280;24980;48.874;2.332;2023-12-28T12:32:27;101149.99;;;23.52;45.97
39275;BME280;24980;48.874;2.332;2023-12-28T12:34:56;101152.19;;;23.53;45.95
39275;BME280;24980;48.874;2.332;2023-12-28T12:37:27;101151.26;;;23.53;45.95
39275;BME280;24980;48.874;2.332;2023-12-28T12:39:57;101148.30;;;23.52;45.95
39275;BME280;24980;48.874;2.332;2023-12-28T12:42:27;101150.75;;;23.52;45.95
39275;BME280;24980;48.874;2.332;2023-12-28T12:44:58;101138.48;;;23.52;45.96
39275;BME280;24980;48.874;2.332;2023-12-28T12:47:32;101141.03;;;23.51;45.98
39275;BME280;24980;48.874;2.332;2023-12-28T12:49:58;101141.96;;;23.51;46.01
39275;BME280;24980;48.874;2.332;2023-12-28T12:52:28;101138.24;;;23.51;46.02
39275;BME280;24980;48.874;2.332;2023-12-28T12:54:58;101137.73;;;23.52;46.02
39275;BME280;24980;48.874;2.332;2023-12-28T12:57:29;101140.44;;;23.52;46.02
39275;BME280;24980;48.874;2.332;2023-12-28T12:59:59;101135.36;;;23.52;46.00
39275;BME280;24980;48.874;2.332;2023-12-28T13:02:30;101126.31;;;23.51;45.99
39275;BME280;24980;48.874;2.332;2023-12-28T13:05:00;101123.77;;;23.50;45.98
39275;BME280;24980;48.874;2.332;2023-12-28T13:07:31;101124.74;;;23.50;45.99
39275;BME280;24980;48.874;2.332;2023-12-28T13:10:01;101115.77;;;23.50;45.95
39275;BME280;24980;48.874;2.332;2023-12-28T13:12:31;101113.23;;;23.50;45.93